sensor_id;sensor_type;location;lat;lon;timestamp;temperature;humidity
64939;DHT22;51453;47.738;7.420;2023-05-25T00:00:42;11.90;99.90
64939;DHT22;51453;47.738;7.420;2023-05-25T00:03:08;11.90;99.90
64939;DHT22;51453;47.738;7.420;2023-05-25T00:05:35;12.00;99.90
64939;DHT22;51453;47.738;7.420;2023-05-25T00:08:00;12.00;99.90
64939;DHT22;51453;47.738;7.420;2023-05-25T00:10:26;12.00;99.90
64939;DHT22;51453;47.738;7.420;2023-05-25T00:12:52;12.00;99.90
64939;DHT22;51453;47.738;7.420;2023-05-25T00:15:20;12.00;99.90
64939;DHT22;51453;47.738;7.420;2023-05-25T00:17:45;12.00;99.90
64939;DHT22;51453;47.738;7.420;2023-05-25T00:20:13;11.90;99.90
64939;DHT22;51453;47.738;7.420;2023-05-25T00:22:41;11.90;99.90
64939;DHT22;51453;47.738;7.420;2023-05-25T00:25:09;11.90;99.90
64939;DHT22;51453;47.738;7.420;2023-05-25T00:27:35;11.90;99.90
64939;DHT22;51453;47.738;7.420;2023-05-25T00:30:01;12.00;99.90
64939;DHT22;51453;47.738;7.420;2023-05-25T00:32:27;11.90;99.90
64939;DHT22;51453;47.738;7.420;2023-05-25T00:34:53;11.90;99.90
64939;DHT22;51453;47.738;7.420;2023-05-25T00:37:19;12.00;99.90
64939;DHT22;51453;47.738;7.420;2023-05-25T00:39:45;11.90;99.90
64939;DHT22;51453;47.738;7.420;2023-05-25T00:42:11;11.80;99.90
64939;DHT22;51453;47.738;7.420;2023-05-25T00:44:37;11.80;99.90
64939;DHT22;51453;47.738;7.420;2023-05-25T00:47:03;11.80;99.90
64939;DHT22;51453;47.738;7.420;2023-05-25T00:49:32;11.70;99.90
64939;DHT22;51453;47.738;7.420;2023-05-25T00:51:59;11.70;99.90
64939;DHT22;51453;47.738;7.420;2023-05-25T00:54:26;11.70;99.90
64939;DHT22;51453;47.738;7.420;2023-05-25T00:56:55;11.70;99.90
64939;DHT22;51453;47.738;7.420;2023-05-25T00:59:37;11.60;99.90
64939;DHT22;51453;47.738;7.420;2023-05-25T01:02:12;11.70;99.90
64939;DHT22;51453;47.738;7.420;2023-05-25T01:04:43;11.70;99.90
64939;DHT22;51453;47.738;7.420;2023-05-25T01:07:10;11.70;99.90
64939;DHT22;51453;47.738;7.420;2023-05-25T01:09:40;11.70;99.90
64939;DHT22;51453;47.738;7.420;2023-05-25T01:12:09;11.70;99.90
64939;DHT22;51453;47.738;7.420;2023-05-25T01:14:38;11.70;99.90
64939;DHT22;51453;47.738;7.420;2023-05-25T01:17:07;11.60;99.90
64939;DHT22;51453;47.738;7.420;2023-05-25T01:19:34;11.70;99.90
64939;DHT22;51453;47.738;7.420;2023-05-25T01:22:26;11.70;99.90
64939;DHT22;51453;47.738;7.420;2023-05-25T01:24:57;11.60;99.90
64939;DHT22;51453;47.738;7.420;2023-05-25T01:27:38;11.60;99.90
64939;DHT22;51453;47.738;7.420;2023-05-25T01:30:08;11.50;99.90
64939;DHT22;51453;47.738;7.420;2023-05-25T01:32:36;11.50;99.90
64939;DHT22;51453;47.738;7.420;2023-05-25T01:35:03;11.40;99.90
64939;DHT22;51453;47.738;7.420;2023-05-25T01:37:29;11.40;99.90
64939;DHT22;51453;47.738;7.420;2023-05-25T01:39:56;11.40;99.90
64939;DHT22;51453;47.738;7.420;2023-05-25T01:42:21;11.30;99.90
64939;DHT22;51453;47.738;7.420;2023-05-25T01:44:47;11.30;99.90
64939;DHT22;51453;47.738;7.420;2023-05-25T01:47:24;11.20;99.90
64939;DHT22;51453;47.738;7.420;2023-05-25T01:50:05;11.30;99.90
64939;DHT22;51453;47.738;7.420;2023-05-25T01:52:35;11.20;99.90
64939;DHT22;51453;47.738;7.420;2023-05-25T01:55:06;11.20;99.90
64939;DHT22;51453;47.738;7.420;2023-05-25T01:57:35;11.20;99.90
64939;DHT22;51453;47.738;7.420;2023-05-25T02:00:02;11.20;99.90
64939;DHT22;51453;47.738;7.420;2023-05-25T02:02:30;11.10;99.90
64939;DHT22;51453;47.738;7.420;2023-05-25T02:04:57;11.10;99.90
64939;DHT22;51453;47.738;7.420;2023-05-25T02:07:23;11.10;99.90
64939;DHT22;51453;47.738;7.420;2023-05-25T02:09:49;11.10;99.90
64939;DHT22;51453;47.738;7.420;2023-05-25T02:12:15;11.10;99.90
64939;DHT22;51453;47.738;7.420;2023-05-25T02:14:41;11.20;99.90
64939;DHT22;51453;47.738;7.420;2023-05-25T02:17:07;11.20;99.90
64939;DHT22;51453;47.738;7.420;2023-05-25T02:19:33;11.10;99.90
64939;DHT22;51453;47.738;7.420;2023-05-25T02:21:59;11.10;99.90
64939;DHT22;51453;47.738;7.420;2023-05-25T02:24:24;11.10;99.90
64939;DHT22;51453;47.738;7.420;2023-05-25T02:26:50;11.20;99.90
64939;DHT22;51453;47.738;7.420;2023-05-25T02:29:16;11.20;99.90
64939;DHT22;51453;47.738;7.420;2023-05-25T02:31:41;11.20;99.90
64939;DHT22;51453;47.738;7.420;2023-05-25T02:34:07;11.30;99.90
64939;DHT22;51453;47.738;7.420;2023-05-25T02:36:33;11.20;99.90
64939;DHT22;51453;47.738;7.420;2023-05-25T02:39:02;11.10;99.90
64939;DHT22;51453;47.738;7.420;2023-05-25T02:41:27;11.10;99.90
64939;DHT22;51453;47.738;7.420;2023-05-25T02:43:53;11.10;99.90
64939;DHT22;51453;47.738;7.420;2023-05-25T02:46:19;11.00;99.90
64939;DHT22;51453;47.738;7.420;2023-05-25T02:48:46;11.00;99.90
64939;DHT22;51453;47.738;7.420;2023-05-25T02:51:12;11.10;99.90
64939;DHT22;51453;47.738;7.420;2023-05-25T02:53:37;11.00;99.90
64939;DHT22;51453;47.738;7.420;2023-05-25T02:56:04;11.00;99.90
64939;DHT22;51453;47.738;7.420;2023-05-25T02:58:29;11.00;99.90
64939;DHT22;51453;47.738;7.420;2023-05-25T03:00:55;11.00;99.90
64939;DHT22;51453;47.738;7.420;2023-05-25T03:03:22;11.00;99.90
64939;DHT22;51453;47.738;7.420;2023-05-25T03:05:48;11.10;99.90
64939;DHT22;51453;47.738;7.420;2023-05-25T03:08:13;11.00;99.90
64939;DHT22;51453;47.738;7.420;2023-05-25T03:10:39;11.00;99.90
64939;DHT22;51453;47.738;7.420;2023-05-25T03:13:04;11.00;99.90
64939;DHT22;51453;47.738;7.420;2023-05-25T03:15:30;11.00;99.90
64939;DHT22;51453;47.738;7.420;2023-05-25T03:17:55;11.10;99.90
64939;DHT22;51453;47.738;7.420;2023-05-25T03:20:26;11.10;99.90
64939;DHT22;51453;47.738;7.420;2023-05-25T03:22:51;11.10;99.90
64939;DHT22;51453;47.738;7.420;2023-05-25T03:25:17;11.10;99.90
64939;DHT22;51453;47.738;7.420;2023-05-25T03:27:43;11.00;99.90
64939;DHT22;51453;47.738;7.420;2023-05-25T03:30:09;11.00;99.90
64939;DHT22;51453;47.738;7.420;2023-05-25T03:32:35;11.00;99.90
64939;DHT22;51453;47.738;7.420;2023-05-25T03:35:02;11.00;99.90
64939;DHT22;51453;47.738;7.420;2023-05-25T03:37:27;11.00;99.90
64939;DHT22;51453;47.738;7.420;2023-05-25T03:39:53;11.00;99.90
64939;DHT22;51453;47.738;7.420;2023-05-25T03:42:19;11.00;99.90
64939;DHT22;51453;47.738;7.420;2023-05-25T03:44:44;11.00;99.90
64939;DHT22;51453;47.738;7.420;2023-05-25T03:47:10;11.00;99.90
64939;DHT22;51453;47.738;7.420;2023-05-25T03:49:37;10.90;99.90
64939;DHT22;51453;47.738;7.420;2023-05-25T03:52:02;10.90;99.90
64939;DHT22;51453;47.738;7.420;2023-05-25T03:54:28;10.90;99.90
64939;DHT22;51453;47.738;7.420;2023-05-25T03:56:54;10.80;99.90
64939;DHT22;51453;47.738;7.420;2023-05-25T03:59:21;10.80;99.90
64939;DHT22;51453;47.738;7.420;2023-05-25T04:01:46;10.80;99.90
64939;DHT22;51453;47.738;7.420;2023-05-25T04:04:12;10.90;99.90
64939;DHT22;51453;47.738;7.420;2023-05-25T04:06:37;11.00;99.90
64939;DHT22;51453;47.738;7.420;2023-05-25T04:09:04;11.00;99.90
64939;DHT22;51453;47.738;7.420;2023-05-25T04:11:29;11.00;99.90
64939;DHT22;51453;47.738;7.420;2023-05-25T04:13:55;11.10;99.90
64939;DHT22;51453;47.738;7.420;2023-05-25T04:16:21;11.10;99.90
64939;DHT22;51453;47.738;7.420;2023-05-25T04:18:47;11.00;99.90
64939;DHT22;51453;47.738;7.420;2023-05-25T04:21:12;11.00;99.90
64939;DHT22;51453;47.738;7.420;2023-05-25T04:23:38;10.90;99.90
64939;DHT22;51453;47.738;7.420;2023-05-25T04:26:04;11.00;99.90
64939;DHT22;51453;47.738;7.420;2023-05-25T04:28:31;11.10;99.90
64939;DHT22;51453;47.738;7.420;2023-05-25T04:30:56;11.20;99.90
64939;DHT22;51453;47.738;7.420;2023-05-25T04:33:22;11.40;99.90
64939;DHT22;51453;47.738;7.420;2023-05-25T04:35:49;11.60;99.90
64939;DHT22;51453;47.738;7.420;2023-05-25T04:38:15;11.90;99.90
64939;DHT22;51453;47.738;7.420;2023-05-25T04:40:44;12.00;99.90
64939;DHT22;51453;47.738;7.420;2023-05-25T04:43:13;12.00;99.90
64939;DHT22;51453;47.738;7.420;2023-05-25T04:45:43;11.80;99.90
64939;DHT22;51453;47.738;7.420;2023-05-25T04:48:10;11.90;99.90
64939;DHT22;51453;47.738;7.420;2023-05-25T04:50:38;11.70;99.90
64939;DHT22;51453;47.738;7.420;2023-05-25T04:53:04;11.70;99.90
64939;DHT22;51453;47.738;7.420;2023-05-25T04:55:30;11.60;99.90
64939;DHT22;51453;47.738;7.420;2023-05-25T04:57:56;11.50;99.90
64939;DHT22;51453;47.738;7.420;2023-05-25T05:00:23;11.50;99.90
64939;DHT22;51453;47.738;7.420;2023-05-25T05:02:49;11.40;99.90
64939;DHT22;51453;47.738;7.420;2023-05-25T05:05:16;11.40;99.90
64939;DHT22;51453;47.738;7.420;2023-05-25T05:07:41;11.50;99.90
64939;DHT22;51453;47.738;7.420;2023-05-25T05:10:07;11.50;99.90
64939;DHT22;51453;47.738;7.420;2023-05-25T05:12:33;11.40;99.90
64939;DHT22;51453;47.738;7.420;2023-05-25T05:14:59;11.50;99.90
64939;DHT22;51453;47.738;7.420;2023-05-25T05:17:24;11.60;99.90
64939;DHT22;51453;47.738;7.420;2023-05-25T05:19:52;11.50;99.90
64939;DHT22;51453;47.738;7.420;2023-05-25T05:22:18;11.40;99.90
64939;DHT22;51453;47.738;7.420;2023-05-25T05:24:43;11.40;99.90
64939;DHT22;51453;47.738;7.420;2023-05-25T05:27:12;11.50;99.90
64939;DHT22;51453;47.738;7.420;2023-05-25T05:29:39;11.70;99.90
64939;DHT22;51453;47.738;7.420;2023-05-25T05:32:05;12.30;99.90
64939;DHT22;51453;47.738;7.420;2023-05-25T05:34:31;12.40;99.90
64939;DHT22;51453;47.738;7.420;2023-05-25T05:36:57;12.60;99.90
64939;DHT22;51453;47.738;7.420;2023-05-25T05:39:27;13.20;99.90
64939;DHT22;51453;47.738;7.420;2023-05-25T05:41:53;14.20;99.90
64939;DHT22;51453;47.738;7.420;2023-05-25T05:44:19;14.90;99.90
64939;DHT22;51453;47.738;7.420;2023-05-25T05:46:45;14.70;99.90
64939;DHT22;51453;47.738;7.420;2023-05-25T05:49:11;14.70;99.90
64939;DHT22;51453;47.738;7.420;2023-05-25T05:51:37;15.30;99.90
64939;DHT22;51453;47.738;7.420;2023-05-25T05:54:03;16.10;99.90
64939;DHT22;51453;47.738;7.420;2023-05-25T05:56:28;16.00;99.90
64939;DHT22;51453;47.738;7.420;2023-05-25T05:58:54;15.40;99.90
64939;DHT22;51453;47.738;7.420;2023-05-25T06:01:20;15.20;99.90
64939;DHT22;51453;47.738;7.420;2023-05-25T06:03:47;15.00;99.90
64939;DHT22;51453;47.738;7.420;2023-05-25T06:06:13;14.80;99.90
64939;DHT22;51453;47.738;7.420;2023-05-25T06:08:38;14.90;99.90
64939;DHT22;51453;47.738;7.420;2023-05-25T06:11:07;15.10;99.90
64939;DHT22;51453;47.738;7.420;2023-05-25T06:13:32;15.70;99.90
64939;DHT22;51453;47.738;7.420;2023-05-25T06:15:58;16.40;99.90
64939;DHT22;51453;47.738;7.420;2023-05-25T06:18:24;16.40;99.90
64939;DHT22;51453;47.738;7.420;2023-05-25T06:20:49;16.30;99.90
64939;DHT22;51453;47.738;7.420;2023-05-25T06:23:15;16.60;99.90
64939;DHT22;51453;47.738;7.420;2023-05-25T06:25:42;16.30;99.90
64939;DHT22;51453;47.738;7.420;2023-05-25T06:28:07;16.10;99.90
64939;DHT22;51453;47.738;7.420;2023-05-25T06:30:33;15.90;99.90
64939;DHT22;51453;47.738;7.420;2023-05-25T06:32:59;16.10;99.90
64939;DHT22;51453;47.738;7.420;2023-05-25T06:35:24;16.10;99.90
64939;DHT22;51453;47.738;7.420;2023-05-25T06:37:50;16.10;99.90
64939;DHT22;51453;47.738;7.420;2023-05-25T06:40:16;16.10;99.90
64939;DHT22;51453;47.738;7.420;2023-05-25T06:42:42;15.90;99.90
64939;DHT22;51453;47.738;7.420;2023-05-25T06:45:08;16.30;99.90
64939;DHT22;51453;47.738;7.420;2023-05-25T06:47:34;17.10;99.90
64939;DHT22;51453;47.738;7.420;2023-05-25T06:50:00;17.40;99.90
64939;DHT22;51453;47.738;7.420;2023-05-25T06:52:26;16.80;99.90
64939;DHT22;51453;47.738;7.420;2023-05-25T06:54:56;16.60;99.90
64939;DHT22;51453;47.738;7.420;2023-05-25T06:57:24;16.60;99.90
64939;DHT22;51453;47.738;7.420;2023-05-25T06:59:50;16.80;99.90
64939;DHT22;51453;47.738;7.420;2023-05-25T07:02:16;17.00;99.90
64939;DHT22;51453;47.738;7.420;2023-05-25T07:04:43;17.00;99.90
64939;DHT22;51453;47.738;7.420;2023-05-25T07:07:08;17.20;99.90
64939;DHT22;51453;47.738;7.420;2023-05-25T07:09:34;17.00;99.90
64939;DHT22;51453;47.738;7.420;2023-05-25T07:12:00;17.40;99.90
64939;DHT22;51453;47.738;7.420;2023-05-25T07:14:25;16.80;99.90
64939;DHT22;51453;47.738;7.420;2023-05-25T07:16:51;16.40;99.90
64939;DHT22;51453;47.738;7.420;2023-05-25T07:19:16;16.20;99.90
64939;DHT22;51453;47.738;7.420;2023-05-25T07:21:42;16.20;99.90
64939;DHT22;51453;47.738;7.420;2023-05-25T07:24:08;16.10;99.90
64939;DHT22;51453;47.738;7.420;2023-05-25T07:26:34;16.40;99.90
64939;DHT22;51453;47.738;7.420;2023-05-25T07:29:00;16.30;99.90
64939;DHT22;51453;47.738;7.420;2023-05-25T07:31:26;16.00;99.90
64939;DHT22;51453;47.738;7.420;2023-05-25T07:33:51;16.00;99.90
64939;DHT22;51453;47.738;7.420;2023-05-25T07:36:20;16.00;99.90
64939;DHT22;51453;47.738;7.420;2023-05-25T07:38:46;16.30;99.90
64939;DHT22;51453;47.738;7.420;2023-05-25T07:41:12;16.60;99.90
64939;DHT22;51453;47.738;7.420;2023-05-25T07:43:38;16.70;99.90
64939;DHT22;51453;47.738;7.420;2023-05-25T07:46:04;17.10;99.90
64939;DHT22;51453;47.738;7.420;2023-05-25T07:48:30;17.30;99.90
64939;DHT22;51453;47.738;7.420;2023-05-25T07:50:56;16.90;99.90
64939;DHT22;51453;47.738;7.420;2023-05-25T07:53:21;16.60;99.90
64939;DHT22;51453;47.738;7.420;2023-05-25T07:55:47;16.40;99.90
64939;DHT22;51453;47.738;7.420;2023-05-25T07:58:13;16.30;99.90
64939;DHT22;51453;47.738;7.420;2023-05-25T08:00:38;16.40;99.90
64939;DHT22;51453;47.738;7.420;2023-05-25T08:03:04;16.50;99.90
64939;DHT22;51453;47.738;7.420;2023-05-25T08:05:30;16.70;99.90
64939;DHT22;51453;47.738;7.420;2023-05-25T08:07:56;17.00;99.90
64939;DHT22;51453;47.738;7.420;2023-05-25T08:10:22;17.10;99.90
64939;DHT22;51453;47.738;7.420;2023-05-25T08:12:48;17.00;99.90
64939;DHT22;51453;47.738;7.420;2023-05-25T08:15:14;17.20;99.90
64939;DHT22;51453;47.738;7.420;2023-05-25T08:17:40;17.00;99.90
64939;DHT22;51453;47.738;7.420;2023-05-25T08:20:07;17.00;99.90
64939;DHT22;51453;47.738;7.420;2023-05-25T08:22:33;16.90;99.90
64939;DHT22;51453;47.738;7.420;2023-05-25T08:24:59;17.00;99.90
64939;DHT22;51453;47.738;7.420;2023-05-25T08:27:25;17.00;99.90
64939;DHT22;51453;47.738;7.420;2023-05-25T08:29:51;17.10;99.90
64939;DHT22;51453;47.738;7.420;2023-05-25T08:32:16;17.30;99.90
64939;DHT22;51453;47.738;7.420;2023-05-25T08:34:42;17.40;99.90
64939;DHT22;51453;47.738;7.420;2023-05-25T08:37:07;17.70;99.90
64939;DHT22;51453;47.738;7.420;2023-05-25T08:39:33;17.80;99.90
64939;DHT22;51453;47.738;7.420;2023-05-25T08:41:59;17.70;99.90
64939;DHT22;51453;47.738;7.420;2023-05-25T08:44:26;17.70;99.90
64939;DHT22;51453;47.738;7.420;2023-05-25T08:46:55;17.70;99.90
64939;DHT22;51453;47.738;7.420;2023-05-25T08:49:21;17.70;99.90
64939;DHT22;51453;47.738;7.420;2023-05-25T08:51:49;17.90;99.90
64939;DHT22;51453;47.738;7.420;2023-05-25T08:54:18;17.90;99.90
64939;DHT22;51453;47.738;7.420;2023-05-25T08:56:49;17.90;99.90
64939;DHT22;51453;47.738;7.420;2023-05-25T09:01:55;17.70;99.90
64939;DHT22;51453;47.738;7.420;2023-05-25T09:04:22;17.60;99.90
64939;DHT22;51453;47.738;7.420;2023-05-25T09:06:48;17.80;99.90
64939;DHT22;51453;47.738;7.420;2023-05-25T09:09:15;18.00;99.90
64939;DHT22;51453;47.738;7.420;2023-05-25T09:11:42;18.30;99.90
64939;DHT22;51453;47.738;7.420;2023-05-25T09:14:10;18.40;99.90
64939;DHT22;51453;47.738;7.420;2023-05-25T09:16:39;18.60;99.90
64939;DHT22;51453;47.738;7.420;2023-05-25T09:19:04;18.40;99.90
64939;DHT22;51453;47.738;7.420;2023-05-25T09:21:30;18.40;99.90
64939;DHT22;51453;47.738;7.420;2023-05-25T09:23:58;18.30;99.90
64939;DHT22;51453;47.738;7.420;2023-05-25T09:26:24;18.50;99.90
64939;DHT22;51453;47.738;7.420;2023-05-25T09:28:51;18.70;99.90
64939;DHT22;51453;47.738;7.420;2023-05-25T09:31:16;18.80;99.90
64939;DHT22;51453;47.738;7.420;2023-05-25T09:33:42;19.10;99.90
64939;DHT22;51453;47.738;7.420;2023-05-25T09:36:12;19.20;99.90
64939;DHT22;51453;47.738;7.420;2023-05-25T09:38:39;19.30;99.90
64939;DHT22;51453;47.738;7.420;2023-05-25T09:41:05;19.50;99.90
64939;DHT22;51453;47.738;7.420;2023-05-25T09:43:32;19.60;99.90
64939;DHT22;51453;47.738;7.420;2023-05-25T09:45:58;19.80;99.90
64939;DHT22;51453;47.738;7.420;2023-05-25T09:48:24;20.00;99.90
64939;DHT22;51453;47.738;7.420;2023-05-25T09:50:50;20.10;99.90
64939;DHT22;51453;47.738;7.420;2023-05-25T09:53:16;20.00;99.90
64939;DHT22;51453;47.738;7.420;2023-05-25T09:55:41;19.90;99.90
64939;DHT22;51453;47.738;7.420;2023-05-25T09:58:07;20.00;99.90
64939;DHT22;51453;47.738;7.420;2023-05-25T10:00:33;20.10;99.90
64939;DHT22;51453;47.738;7.420;2023-05-25T10:02:59;20.10;99.90
64939;DHT22;51453;47.738;7.420;2023-05-25T10:05:25;20.20;99.90
64939;DHT22;51453;47.738;7.420;2023-05-25T10:07:52;20.20;99.90
64939;DHT22;51453;47.738;7.420;2023-05-25T10:10:18;20.40;99.90
64939;DHT22;51453;47.738;7.420;2023-05-25T10:12:44;20.40;99.90
64939;DHT22;51453;47.738;7.420;2023-05-25T10:15:12;20.40;99.90
64939;DHT22;51453;47.738;7.420;2023-05-25T10:17:44;20.50;99.90
64939;DHT22;51453;47.738;7.420;2023-05-25T10:20:11;20.40;99.90
64939;DHT22;51453;47.738;7.420;2023-05-25T10:22:50;20.20;99.90
64939;DHT22;51453;47.738;7.420;2023-05-25T10:25:26;20.10;99.90
64939;DHT22;51453;47.738;7.420;2023-05-25T10:28:02;20.30;99.90
64939;DHT22;51453;47.738;7.420;2023-05-25T10:30:29;20.40;99.90
64939;DHT22;51453;47.738;7.420;2023-05-25T10:32:56;20.50;99.90
64939;DHT22;51453;47.738;7.420;2023-05-25T10:35:25;20.50;99.90
64939;DHT22;51453;47.738;7.420;2023-05-25T10:37:52;20.70;99.90
64939;DHT22;51453;47.738;7.420;2023-05-25T10:40:20;21.20;99.90
64939;DHT22;51453;47.738;7.420;2023-05-25T10:42:48;21.60;99.90
64939;DHT22;51453;47.738;7.420;2023-05-25T10:45:14;21.20;99.90
64939;DHT22;51453;47.738;7.420;2023-05-25T10:47:41;21.10;99.90
64939;DHT22;51453;47.738;7.420;2023-05-25T10:50:19;20.80;99.90
64939;DHT22;51453;47.738;7.420;2023-05-25T10:52:45;20.50;99.90
64939;DHT22;51453;47.738;7.420;2023-05-25T10:55:21;20.30;99.90
64939;DHT22;51453;47.738;7.420;2023-05-25T10:57:47;20.70;99.90
64939;DHT22;51453;47.738;7.420;2023-05-25T11:00:30;21.40;99.90
64939;DHT22;51453;47.738;7.420;2023-05-25T11:02:56;21.90;99.90
64939;DHT22;51453;47.738;7.420;2023-05-25T11:08:01;22.60;99.90
64939;DHT22;51453;47.738;7.420;2023-05-25T11:13:33;21.90;99.90
64939;DHT22;51453;47.738;7.420;2023-05-25T11:18:44;21.80;99.90
64939;DHT22;51453;47.738;7.420;2023-05-25T11:21:15;22.20;99.90
64939;DHT22;51453;47.738;7.420;2023-05-25T11:23:56;22.40;99.90
64939;DHT22;51453;47.738;7.420;2023-05-25T11:26:24;22.00;99.90
64939;DHT22;51453;47.738;7.420;2023-05-25T11:28:52;21.60;99.90
64939;DHT22;51453;47.738;7.420;2023-05-25T11:31:26;21.90;99.90
64939;DHT22;51453;47.738;7.420;2023-05-25T11:33:55;22.30;99.90
64939;DHT22;51453;47.738;7.420;2023-05-25T11:36:26;22.20;99.90
64939;DHT22;51453;47.738;7.420;2023-05-25T11:38:52;22.20;99.90
64939;DHT22;51453;47.738;7.420;2023-05-25T11:41:22;22.10;99.90
64939;DHT22;51453;47.738;7.420;2023-05-25T11:43:49;21.90;99.90
64939;DHT22;51453;47.738;7.420;2023-05-25T11:46:16;21.70;99.90
64939;DHT22;51453;47.738;7.420;2023-05-25T11:48:53;21.80;99.90
64939;DHT22;51453;47.738;7.420;2023-05-25T11:51:27;21.90;99.90
64939;DHT22;51453;47.738;7.420;2023-05-25T11:53:53;22.10;99.90
64939;DHT22;51453;47.738;7.420;2023-05-25T11:56:19;22.30;99.90
64939;DHT22;51453;47.738;7.420;2023-05-25T11:58:48;22.30;99.90
64939;DHT22;51453;47.738;7.420;2023-05-25T12:01:19;21.90;99.90
64939;DHT22;51453;47.738;7.420;2023-05-25T12:03:45;21.90;99.90
64939;DHT22;51453;47.738;7.420;2023-05-25T12:06:24;22.30;99.90
64939;DHT22;51453;47.738;7.420;2023-05-25T12:08:51;22.70;99.90
64939;DHT22;51453;47.738;7.420;2023-05-25T12:11:18;23.20;99.90
64939;DHT22;51453;47.738;7.420;2023-05-25T12:13:45;23.20;99.90
64939;DHT22;51453;47.738;7.420;2023-05-25T12:16:11;23.40;99.90
64939;DHT22;51453;47.738;7.420;2023-05-25T12:18:36;22.90;99.90
64939;DHT22;51453;47.738;7.420;2023-05-25T12:21:02;23.50;99.90
64939;DHT22;51453;47.738;7.420;2023-05-25T12:23:32;23.30;99.90
64939;DHT22;51453;47.738;7.420;2023-05-25T12:26:10;22.80;99.90
64939;DHT22;51453;47.738;7.420;2023-05-25T12:28:36;22.40;99.90
64939;DHT22;51453;47.738;7.420;2023-05-25T12:31:21;22.40;99.90
64939;DHT22;51453;47.738;7.420;2023-05-25T12:36:41;23.00;99.90
64939;DHT22;51453;47.738;7.420;2023-05-25T12:39:08;22.40;99.90
64939;DHT22;51453;47.738;7.420;2023-05-25T12:41:48;22.20;99.90
64939;DHT22;51453;47.738;7.420;2023-05-25T12:44:28;22.40;99.90
64939;DHT22;51453;47.738;7.420;2023-05-25T12:47:14;22.80;99.90
64939;DHT22;51453;47.738;7.420;2023-05-25T12:49:42;23.40;99.90
64939;DHT22;51453;47.738;7.420;2023-05-25T12:52:09;23.30;99.90
64939;DHT22;51453;47.738;7.420;2023-05-25T12:54:45;22.80;99.90
64939;DHT22;51453;47.738;7.420;2023-05-25T12:57:13;22.70;99.90
64939;DHT22;51453;47.738;7.420;2023-05-25T12:59:44;22.30;99.90
64939;DHT22;51453;47.738;7.420;2023-05-25T13:02:11;22.00;99.90
64939;DHT22;51453;47.738;7.420;2023-05-25T13:04:38;21.80;99.90
64939;DHT22;51453;47.738;7.420;2023-05-25T13:07:05;22.00;99.90
64939;DHT22;51453;47.738;7.420;2023-05-25T13:09:33;22.30;99.90
64939;DHT22;51453;47.738;7.420;2023-05-25T13:11:59;22.80;99.90
64939;DHT22;51453;47.738;7.420;2023-05-25T13:14:27;23.20;99.90
64939;DHT22;51453;47.738;7.420;2023-05-25T13:16:54;23.20;99.90
64939;DHT22;51453;47.738;7.420;2023-05-25T13:19:22;23.10;99.90
64939;DHT22;51453;47.738;7.420;2023-05-25T13:21:48;23.40;99.90
64939;DHT22;51453;47.738;7.420;2023-05-25T13:24:16;23.90;99.90
64939;DHT22;51453;47.738;7.420;2023-05-25T13:26:46;23.80;99.90
64939;DHT22;51453;47.738;7.420;2023-05-25T13:29:12;23.60;99.90
64939;DHT22;51453;47.738;7.420;2023-05-25T13:31:40;23.50;99.90
64939;DHT22;51453;47.738;7.420;2023-05-25T13:34:06;22.80;99.90
64939;DHT22;51453;47.738;7.420;2023-05-25T13:36:31;23.10;99.90
64939;DHT22;51453;47.738;7.420;2023-05-25T13:38:59;23.70;99.90
64939;DHT22;51453;47.738;7.420;2023-05-25T13:41:25;23.70;99.90
64939;DHT22;51453;47.738;7.420;2023-05-25T13:43:51;23.80;99.90
64939;DHT22;51453;47.738;7.420;2023-05-25T13:46:17;24.00;99.90
64939;DHT22;51453;47.738;7.420;2023-05-25T13:48:43;23.70;99.90
64939;DHT22;51453;47.738;7.420;2023-05-25T13:51:15;23.50;99.90
64939;DHT22;51453;47.738;7.420;2023-05-25T13:53:42;23.10;99.90
64939;DHT22;51453;47.738;7.420;2023-05-25T13:56:08;22.90;99.90
64939;DHT22;51453;47.738;7.420;2023-05-25T13:58:34;23.30;99.90
64939;DHT22;51453;47.738;7.420;2023-05-25T14:01:00;23.60;99.90
64939;DHT22;51453;47.738;7.420;2023-05-25T14:03:26;23.40;99.90
64939;DHT22;51453;47.738;7.420;2023-05-25T14:05:52;23.20;99.90
64939;DHT22;51453;47.738;7.420;2023-05-25T14:08:18;23.00;99.90
64939;DHT22;51453;47.738;7.420;2023-05-25T14:10:43;23.00;99.90
64939;DHT22;51453;47.738;7.420;2023-05-25T14:13:09;23.20;99.90
64939;DHT22;51453;47.738;7.420;2023-05-25T14:15:35;23.10;99.90
64939;DHT22;51453;47.738;7.420;2023-05-25T14:18:00;22.80;99.90
64939;DHT22;51453;47.738;7.420;2023-05-25T14:20:26;22.70;99.90
64939;DHT22;51453;47.738;7.420;2023-05-25T14:22:52;22.40;99.90
64939;DHT22;51453;47.738;7.420;2023-05-25T14:25:18;22.50;99.90
64939;DHT22;51453;47.738;7.420;2023-05-25T14:27:44;22.80;99.90
64939;DHT22;51453;47.738;7.420;2023-05-25T14:30:10;22.80;99.90
64939;DHT22;51453;47.738;7.420;2023-05-25T14:32:36;23.10;99.90
64939;DHT22;51453;47.738;7.420;2023-05-25T14:35:02;23.30;99.90
64939;DHT22;51453;47.738;7.420;2023-05-25T14:37:28;23.40;99.90
64939;DHT22;51453;47.738;7.420;2023-05-25T14:39:54;24.10;99.90
64939;DHT22;51453;47.738;7.420;2023-05-25T14:42:20;24.60;99.90
64939;DHT22;51453;47.738;7.420;2023-05-25T14:44:46;24.70;99.90
64939;DHT22;51453;47.738;7.420;2023-05-25T14:47:11;24.80;99.90
64939;DHT22;51453;47.738;7.420;2023-05-25T14:49:37;25.10;99.90
64939;DHT22;51453;47.738;7.420;2023-05-25T14:52:02;24.70;99.90
64939;DHT22;51453;47.738;7.420;2023-05-25T14:54:28;24.40;99.90
64939;DHT22;51453;47.738;7.420;2023-05-25T14:56:54;23.50;99.90
64939;DHT22;51453;47.738;7.420;2023-05-25T14:59:19;23.60;99.90
64939;DHT22;51453;47.738;7.420;2023-05-25T15:01:45;24.20;99.90
64939;DHT22;51453;47.738;7.420;2023-05-25T15:04:11;24.60;99.90
64939;DHT22;51453;47.738;7.420;2023-05-25T15:06:38;24.60;99.90
64939;DHT22;51453;47.738;7.420;2023-05-25T15:09:04;24.60;99.90
64939;DHT22;51453;47.738;7.420;2023-05-25T15:11:30;24.80;99.90
64939;DHT22;51453;47.738;7.420;2023-05-25T15:13:56;25.10;99.90
64939;DHT22;51453;47.738;7.420;2023-05-25T15:16:25;24.30;99.90
64939;DHT22;51453;47.738;7.420;2023-05-25T15:18:50;24.10;99.90
64939;DHT22;51453;47.738;7.420;2023-05-25T15:21:16;24.30;99.90
64939;DHT22;51453;47.738;7.420;2023-05-25T15:23:42;24.70;99.90
64939;DHT22;51453;47.738;7.420;2023-05-25T15:26:08;24.70;99.90
64939;DHT22;51453;47.738;7.420;2023-05-25T15:28:36;25.10;99.90
64939;DHT22;51453;47.738;7.420;2023-05-25T15:31:02;25.00;99.90
64939;DHT22;51453;47.738;7.420;2023-05-25T15:33:27;24.80;99.90
64939;DHT22;51453;47.738;7.420;2023-05-25T15:35:53;24.50;99.90
64939;DHT22;51453;47.738;7.420;2023-05-25T15:38:19;24.70;99.90
64939;DHT22;51453;47.738;7.420;2023-05-25T15:40:44;24.80;99.90
64939;DHT22;51453;47.738;7.420;2023-05-25T15:43:10;24.40;99.90